sensor_id;sensor_type;location;lat;lon;timestamp;P1;durP1;ratioP1;P2;durP2;ratioP2
13319;SDS011;59599;47.608;12.190;2022-09-13T04:01:39;1.77;;;1.57;;
13319;SDS011;59599;47.608;12.190;2022-09-13T04:04:05;3.13;;;1.93;;
13319;SDS011;59599;47.608;12.190;2022-09-13T04:06:31;3.47;;;1.93;;
13319;SDS011;59599;47.608;12.190;2022-09-13T04:08:57;5.20;;;1.70;;
13319;SDS011;59599;47.608;12.190;2022-09-13T04:11:24;2.90;;;1.80;;
13319;SDS011;59599;47.608;12.190;2022-09-13T04:16:16;3.03;;;1.80;;
13319;SDS011;59599;47.608;12.190;2022-09-13T04:18:42;1.93;;;1.73;;
13319;SDS011;59599;47.608;12.190;2022-09-13T04:21:07;2.20;;;1.80;;
13319;SDS011;59599;47.608;12.190;2022-09-13T04:23:33;2.70;;;1.90;;
13319;SDS011;59599;47.608;12.190;2022-09-13T04:26:00;6.13;;;1.90;;
13319;SDS011;59599;47.608;12.190;2022-09-13T04:28:26;2.13;;;1.60;;
13319;SDS011;59599;47.608;12.190;2022-09-13T04:30:52;4.53;;;1.73;;
13319;SDS011;59599;47.608;12.190;2022-09-13T04:33:18;3.00;;;1.90;;
13319;SDS011;59599;47.608;12.190;2022-09-13T04:35:44;2.53;;;1.93;;
13319;SDS011;59599;47.608;12.190;2022-09-13T04:38:10;3.53;;;1.97;;
13319;SDS011;59599;47.608;12.190;2022-09-13T04:40:35;1.90;;;1.50;;
13319;SDS011;59599;47.608;12.190;2022-09-13T04:43:03;6.27;;;1.70;;
13319;SDS011;59599;47.608;12.190;2022-09-13T04:45:28;3.30;;;1.70;;
13319;SDS011;59599;47.608;12.190;2022-09-13T04:47:54;7.43;;;2.33;;
13319;SDS011;59599;47.608;12.190;2022-09-13T04:50:21;2.97;;;2.67;;
13319;SDS011;59599;47.608;12.190;2022-09-13T04:52:47;3.43;;;2.47;;
13319;SDS011;59599;47.608;12.190;2022-09-13T04:55:13;4.43;;;2.03;;
13319;SDS011;59599;47.608;12.190;2022-09-13T04:57:39;3.57;;;2.03;;
13319;SDS011;59599;47.608;12.190;2022-09-13T05:00:05;1.80;;;1.70;;
13319;SDS011;59599;47.608;12.190;2022-09-13T05:02:32;5.10;;;1.80;;
13319;SDS011;59599;47.608;12.190;2022-09-13T05:04:58;6.13;;;2.20;;
13319;SDS011;59599;47.608;12.190;2022-09-13T05:07:23;4.60;;;1.77;;
13319;SDS011;59599;47.608;12.190;2022-09-13T05:09:49;2.53;;;1.67;;
13319;SDS011;59599;47.608;12.190;2022-09-13T05:12:15;2.37;;;1.90;;
13319;SDS011;59599;47.608;12.190;2022-09-13T05:14:41;7.03;;;1.80;;
13319;SDS011;59599;47.608;12.190;2022-09-13T05:17:07;2.67;;;1.83;;
13319;SDS011;59599;47.608;12.190;2022-09-13T05:19:33;2.50;;;1.80;;
13319;SDS011;59599;47.608;12.190;2022-09-13T05:22:00;3.43;;;1.93;;
13319;SDS011;59599;47.608;12.190;2022-09-13T05:24:26;6.83;;;1.97;;
13319;SDS011;59599;47.608;12.190;2022-09-13T05:26:52;4.90;;;1.70;;
13319;SDS011;59599;47.608;12.190;2022-09-13T05:29:18;3.67;;;2.07;;
13319;SDS011;59599;47.608;12.190;2022-09-13T05:31:44;2.10;;;1.80;;
13319;SDS011;59599;47.608;12.190;2022-09-13T05:34:11;2.80;;;1.83;;
13319;SDS011;59599;47.608;12.190;2022-09-13T05:36:37;3.30;;;1.90;;
13319;SDS011;59599;47.608;12.190;2022-09-13T05:39:04;5.57;;;1.90;;
13319;SDS011;59599;47.608;12.190;2022-09-13T05:41:30;1.87;;;1.60;;
13319;SDS011;59599;47.608;12.190;2022-09-13T05:43:56;2.40;;;1.87;;
13319;SDS011;59599;47.608;12.190;2022-09-13T05:46:22;2.10;;;1.80;;
13319;SDS011;59599;47.608;12.190;2022-09-13T05:48:48;4.07;;;2.10;;
13319;SDS011;59599;47.608;12.190;2022-09-13T05:51:18;8.23;;;1.80;;
13319;SDS011;59599;47.608;12.190;2022-09-13T05:53:45;3.55;;;1.98;;
13319;SDS011;59599;47.608;12.190;2022-09-13T05:56:16;8.33;;;2.50;;
13319;SDS011;59599;47.608;12.190;2022-09-13T05:58:43;2.20;;;1.93;;
13319;SDS011;59599;47.608;12.190;2022-09-13T06:01:10;6.70;;;2.10;;
13319;SDS011;59599;47.608;12.190;2022-09-13T06:03:36;3.60;;;1.80;;
13319;SDS011;59599;47.608;12.190;2022-09-13T06:06:03;2.07;;;1.73;;
13319;SDS011;59599;47.608;12.190;2022-09-13T06:08:29;2.47;;;2.00;;
13319;SDS011;59599;47.608;12.190;2022-09-13T06:10:57;2.97;;;1.90;;
13319;SDS011;59599;47.608;12.190;2022-09-13T06:13:23;2.30;;;1.80;;
13319;SDS011;59599;47.608;12.190;2022-09-13T06:15:49;1.87;;;1.70;;
13319;SDS011;59599;47.608;12.190;2022-09-13T06:18:15;3.07;;;1.70;;
13319;SDS011;59599;47.608;12.190;2022-09-13T06:20:41;2.37;;;1.80;;
13319;SDS011;59599;47.608;12.190;2022-09-13T06:23:07;2.50;;;1.70;;
13319;SDS011;59599;47.608;12.190;2022-09-13T06:25:33;2.97;;;1.97;;
13319;SDS011;59599;47.608;12.190;2022-09-13T06:27:59;3.53;;;2.10;;
13319;SDS011;59599;47.608;12.190;2022-09-13T06:30:24;4.10;;;2.17;;
13319;SDS011;59599;47.608;12.190;2022-09-13T06:32:50;2.13;;;1.67;;
13319;SDS011;59599;47.608;12.190;2022-09-13T06:35:16;3.57;;;2.07;;
13319;SDS011;59599;47.608;12.190;2022-09-13T06:37:42;2.67;;;1.80;;
13319;SDS011;59599;47.608;12.190;2022-09-13T06:40:08;6.13;;;2.00;;
13319;SDS011;59599;47.608;12.190;2022-09-13T06:42:34;3.90;;;2.27;;
13319;SDS011;59599;47.608;12.190;2022-09-13T06:45:01;5.37;;;1.97;;
13319;SDS011;59599;47.608;12.190;2022-09-13T06:47:26;3.07;;;1.43;;
13319;SDS011;59599;47.608;12.190;2022-09-13T06:49:52;6.17;;;1.80;;
13319;SDS011;59599;47.608;12.190;2022-09-13T06:52:18;5.60;;;1.97;;
13319;SDS011;59599;47.608;12.190;2022-09-13T06:54:44;4.70;;;2.07;;
13319;SDS011;59599;47.608;12.190;2022-09-13T06:57:10;6.97;;;2.10;;
13319;SDS011;59599;47.608;12.190;2022-09-13T06:59:35;3.77;;;2.20;;
13319;SDS011;59599;47.608;12.190;2022-09-13T07:02:02;5.43;;;2.10;;
13319;SDS011;59599;47.608;12.190;2022-09-13T07:04:28;2.93;;;2.27;;
13319;SDS011;59599;47.608;12.190;2022-09-13T07:06:56;2.97;;;2.07;;
13319;SDS011;59599;47.608;12.190;2022-09-13T07:09:23;3.30;;;2.40;;
13319;SDS011;59599;47.608;12.190;2022-09-13T07:11:50;2.90;;;1.83;;
13319;SDS011;59599;47.608;12.190;2022-09-13T07:14:18;1.73;;;1.63;;
13319;SDS011;59599;47.608;12.190;2022-09-13T07:16:46;2.83;;;1.70;;
13319;SDS011;59599;47.608;12.190;2022-09-13T07:19:16;1.63;;;1.53;;
13319;SDS011;59599;47.608;12.190;2022-09-13T07:21:42;2.83;;;1.77;;
13319;SDS011;59599;47.608;12.190;2022-09-13T07:24:08;3.47;;;2.03;;
13319;SDS011;59599;47.608;12.190;2022-09-13T07:26:35;2.10;;;1.90;;
13319;SDS011;59599;47.608;12.190;2022-09-13T07:29:01;3.00;;;1.70;;
13319;SDS011;59599;47.608;12.190;2022-09-13T07:31:33;1.73;;;1.60;;
13319;SDS011;59599;47.608;12.190;2022-09-13T07:34:01;2.53;;;1.60;;
13319;SDS011;59599;47.608;12.190;2022-09-13T07:36:28;6.70;;;2.00;;
13319;SDS011;59599;47.608;12.190;2022-09-13T07:38:54;4.20;;;1.70;;
13319;SDS011;59599;47.608;12.190;2022-09-13T07:41:21;3.00;;;1.90;;
13319;SDS011;59599;47.608;12.190;2022-09-13T07:43:47;2.47;;;1.80;;
13319;SDS011;59599;47.608;12.190;2022-09-13T07:46:18;7.37;;;1.87;;
13319;SDS011;59599;47.608;12.190;2022-09-13T07:48:45;3.63;;;1.67;;
13319;SDS011;59599;47.608;12.190;2022-09-13T07:51:12;3.77;;;1.60;;
13319;SDS011;59599;47.608;12.190;2022-09-13T07:53:40;4.23;;;1.80;;
13319;SDS011;59599;47.608;12.190;2022-09-13T07:56:11;2.72;;;1.50;;
13319;SDS011;59599;47.608;12.190;2022-09-13T07:58:39;1.55;;;1.45;;
13319;SDS011;59599;47.608;12.190;2022-09-13T08:01:07;5.13;;;1.50;;
13319;SDS011;59599;47.608;12.190;2022-09-13T08:03:40;2.00;;;1.50;;
13319;SDS011;59599;47.608;12.190;2022-09-13T08:06:07;6.90;;;1.88;;
13319;SDS011;59599;47.608;12.190;2022-09-13T08:08:33;4.30;;;1.70;;
13319;SDS011;59599;47.608;12.190;2022-09-13T08:11:00;3.72;;;1.55;;
13319;SDS011;59599;47.608;12.190;2022-09-13T08:13:27;4.40;;;1.77;;
13319;SDS011;59599;47.608;12.190;2022-09-13T08:15:53;1.98;;;1.45;;
13319;SDS011;59599;47.608;12.190;2022-09-13T08:18:20;3.03;;;1.45;;
13319;SDS011;59599;47.608;12.190;2022-09-13T08:20:46;2.13;;;1.30;;
13319;SDS011;59599;47.608;12.190;2022-09-13T08:23:12;2.38;;;1.40;;
13319;SDS011;59599;47.608;12.190;2022-09-13T08:25:38;1.67;;;1.33;;
13319;SDS011;59599;47.608;12.190;2022-09-13T08:28:05;1.75;;;1.48;;
13319;SDS011;59599;47.608;12.190;2022-09-13T08:30:35;1.90;;;1.40;;
13319;SDS011;59599;47.608;12.190;2022-09-13T08:33:02;2.00;;;1.60;;
13319;SDS011;59599;47.608;12.190;2022-09-13T08:35:28;1.88;;;1.35;;
13319;SDS011;59599;47.608;12.190;2022-09-13T08:37:55;1.55;;;1.35;;
13319;SDS011;59599;47.608;12.190;2022-09-13T08:40:21;2.40;;;1.45;;
13319;SDS011;59599;47.608;12.190;2022-09-13T08:45:15;1.58;;;1.30;;
13319;SDS011;59599;47.608;12.190;2022-09-13T08:47:49;6.13;;;1.30;;
13319;SDS011;59599;47.608;12.190;2022-09-13T08:50:18;1.60;;;1.25;;
13319;SDS011;59599;47.608;12.190;2022-09-13T09:01:05;2.33;;;1.08;;
13319;SDS011;59599;47.608;12.190;2022-09-13T09:06:11;3.38;;;1.00;;
13319;SDS011;59599;47.608;12.190;2022-09-13T09:08:50;3.65;;;1.15;;
13319;SDS011;59599;47.608;12.190;2022-09-13T09:11:27;1.98;;;1.02;;
13319;SDS011;59599;47.608;12.190;2022-09-13T09:19:21;1.92;;;1.15;;
13319;SDS011;59599;47.608;12.190;2022-09-13T09:21:52;5.32;;;1.40;;
13319;SDS011;59599;47.608;12.190;2022-09-13T09:24:19;3.75;;;1.00;;
13319;SDS011;59599;47.608;12.190;2022-09-13T09:26:47;2.45;;;1.10;;
13319;SDS011;59599;47.608;12.190;2022-09-13T09:34:32;3.15;;;1.30;;
13319;SDS011;59599;47.608;12.190;2022-09-13T09:37:21;1.13;;;1.02;;
13319;SDS011;59599;47.608;12.190;2022-09-13T09:39:53;1.13;;;0.93;;
13319;SDS011;59599;47.608;12.190;2022-09-13T09:42:25;1.88;;;1.13;;
13319;SDS011;59599;47.608;12.190;2022-09-13T09:47:21;1.58;;;1.02;;
13319;SDS011;59599;47.608;12.190;2022-09-13T09:49:55;2.55;;;1.13;;
13319;SDS011;59599;47.608;12.190;2022-09-13T09:52:36;1.73;;;1.13;;
13319;SDS011;59599;47.608;12.190;2022-09-13T09:55:31;1.60;;;1.20;;
13319;SDS011;59599;47.608;12.190;2022-09-13T09:58:04;3.50;;;1.08;;
13319;SDS011;59599;47.608;12.190;2022-09-13T10:00:36;2.17;;;1.27;;
13319;SDS011;59599;47.608;12.190;2022-09-13T10:03:18;0.95;;;0.95;;
13319;SDS011;59599;47.608;12.190;2022-09-13T10:05:48;2.13;;;1.08;;
13319;SDS011;59599;47.608;12.190;2022-09-13T10:08:29;1.67;;;1.27;;
13319;SDS011;59599;47.608;12.190;2022-09-13T10:10:57;2.80;;;1.25;;
13319;SDS011;59599;47.608;12.190;2022-09-13T10:13:24;2.50;;;1.55;;
13319;SDS011;59599;47.608;12.190;2022-09-13T10:15:54;2.60;;;1.02;;
13319;SDS011;59599;47.608;12.190;2022-09-13T10:18:22;1.95;;;1.15;;
13319;SDS011;59599;47.608;12.190;2022-09-13T10:21:08;2.55;;;1.30;;
13319;SDS011;59599;47.608;12.190;2022-09-13T10:23:49;5.07;;;1.38;;
13319;SDS011;59599;47.608;12.190;2022-09-13T10:26:19;2.35;;;1.10;;
13319;SDS011;59599;47.608;12.190;2022-09-13T10:31:27;5.18;;;1.40;;
13319;SDS011;59599;47.608;12.190;2022-09-13T10:34:03;1.25;;;1.05;;
13319;SDS011;59599;47.608;12.190;2022-09-13T10:36:35;5.00;;;1.00;;
13319;SDS011;59599;47.608;12.190;2022-09-13T10:39:03;3.63;;;1.02;;
13319;SDS011;59599;47.608;12.190;2022-09-13T10:41:31;1.85;;;1.40;;
13319;SDS011;59599;47.608;12.190;2022-09-13T10:44:00;3.53;;;1.13;;
13319;SDS011;59599;47.608;12.190;2022-09-13T10:46:31;3.53;;;1.20;;
13319;SDS011;59599;47.608;12.190;2022-09-13T10:49:00;1.90;;;1.10;;
13319;SDS011;59599;47.608;12.190;2022-09-13T10:56:39;3.35;;;1.20;;
13319;SDS011;59599;47.608;12.190;2022-09-13T10:59:13;3.90;;;1.33;;
13319;SDS011;59599;47.608;12.190;2022-09-13T11:02:17;2.35;;;0.93;;
13319;SDS011;59599;47.608;12.190;2022-09-13T11:10:34;2.50;;;1.00;;
13319;SDS011;59599;47.608;12.190;2022-09-13T11:27:12;1.35;;;1.10;;
13319;SDS011;59599;47.608;12.190;2022-09-13T11:32:51;1.58;;;0.88;;
13319;SDS011;59599;47.608;12.190;2022-09-13T11:38:33;2.90;;;1.00;;
13319;SDS011;59599;47.608;12.190;2022-09-13T11:44:07;1.85;;;1.13;;
13319;SDS011;59599;47.608;12.190;2022-09-13T11:52:19;1.45;;;1.10;;
13319;SDS011;59599;47.608;12.190;2022-09-13T11:55:30;1.08;;;0.90;;
13319;SDS011;59599;47.608;12.190;2022-09-13T11:58:04;2.50;;;0.80;;
13319;SDS011;59599;47.608;12.190;2022-09-13T12:00:41;1.63;;;1.00;;
13319;SDS011;59599;47.608;12.190;2022-09-13T12:05:40;2.60;;;0.90;;
13319;SDS011;59599;47.608;12.190;2022-09-13T12:08:29;3.17;;;1.15;;
13319;SDS011;59599;47.608;12.190;2022-09-13T12:13:26;2.10;;;0.80;;
13319;SDS011;59599;47.608;12.190;2022-09-13T12:15:56;1.52;;;1.10;;
13319;SDS011;59599;47.608;12.190;2022-09-13T12:18:37;3.88;;;1.20;;
13319;SDS011;59599;47.608;12.190;2022-09-13T12:21:11;2.28;;;1.00;;
13319;SDS011;59599;47.608;12.190;2022-09-13T12:29:22;1.38;;;0.90;;
13319;SDS011;59599;47.608;12.190;2022-09-13T12:32:02;2.72;;;0.80;;
13319;SDS011;59599;47.608;12.190;2022-09-13T12:34:48;3.25;;;1.00;;
13319;SDS011;59599;47.608;12.190;2022-09-13T13:02:44;3.30;;;0.90;;
13319;SDS011;59599;47.608;12.190;2022-09-13T13:05:42;1.30;;;0.90;;
13319;SDS011;59599;47.608;12.190;2022-09-13T13:11:03;1.65;;;1.10;;
13319;SDS011;59599;47.608;12.190;2022-09-13T13:13:37;3.85;;;1.13;;
13319;SDS011;59599;47.608;12.190;2022-09-13T13:18:52;3.08;;;0.90;;
13319;SDS011;59599;47.608;12.190;2022-09-13T13:21:29;3.20;;;0.90;;
13319;SDS011;59599;47.608;12.190;2022-09-13T13:26:47;2.78;;;1.02;;
13319;SDS011;59599;47.608;12.190;2022-09-13T13:31:43;1.15;;;0.80;;
13319;SDS011;59599;47.608;12.190;2022-09-13T13:37:03;1.13;;;0.80;;
13319;SDS011;59599;47.608;12.190;2022-09-13T13:39:49;5.45;;;0.98;;
13319;SDS011;59599;47.608;12.190;2022-09-13T13:42:35;3.40;;;1.25;;
13319;SDS011;59599;47.608;12.190;2022-09-13T13:45:05;1.55;;;0.93;;
13319;SDS011;59599;47.608;12.190;2022-09-13T13:48:05;0.70;;;0.70;;
13319;SDS011;59599;47.608;12.190;2022-09-13T13:50:51;3.08;;;0.80;;
13319;SDS011;59599;47.608;12.190;2022-09-13T13:53:55;2.03;;;0.88;;
13319;SDS011;59599;47.608;12.190;2022-09-13T13:59:12;1.52;;;0.85;;
13319;SDS011;59599;47.608;12.190;2022-09-13T14:01:44;2.20;;;0.85;;
13319;SDS011;59599;47.608;12.190;2022-09-13T14:09:37;1.77;;;0.90;;
13319;SDS011;59599;47.608;12.190;2022-09-13T14:12:28;1.08;;;0.82;;
13319;SDS011;59599;47.608;12.190;2022-09-13T14:20:32;2.13;;;0.80;;
13319;SDS011;59599;47.608;12.190;2022-09-13T14:23:19;1.33;;;0.80;;
13319;SDS011;59599;47.608;12.190;2022-09-13T14:25:45;2.67;;;1.02;;
13319;SDS011;59599;47.608;12.190;2022-09-13T14:28:21;3.53;;;0.90;;
13319;SDS011;59599;47.608;12.190;2022-09-13T14:30:47;1.10;;;0.68;;
13319;SDS011;59599;47.608;12.190;2022-09-13T14:33:27;0.88;;;0.82;;
13319;SDS011;59599;47.608;12.190;2022-09-13T14:35:57;0.88;;;0.80;;
13319;SDS011;59599;47.608;12.190;2022-09-13T14:38:25;3.42;;;0.85;;
13319;SDS011;59599;47.608;12.190;2022-09-13T14:40:58;2.17;;;0.85;;
13319;SDS011;59599;47.608;12.190;2022-09-13T14:43:27;2.28;;;0.98;;
13319;SDS011;59599;47.608;12.190;2022-09-13T14:45:57;1.42;;;1.10;;
13319;SDS011;59599;47.608;12.190;2022-09-13T14:48:29;0.88;;;0.80;;
13319;SDS011;59599;47.608;12.190;2022-09-13T14:51:01;1.98;;;0.73;;
13319;SDS011;59599;47.608;12.190;2022-09-13T14:53:33;3.53;;;0.90;;
13319;SDS011;59599;47.608;12.190;2022-09-13T14:56:04;4.22;;;1.02;;
13319;SDS011;59599;47.608;12.190;2022-09-13T14:58:50;4.13;;;0.98;;
13319;SDS011;59599;47.608;12.190;2022-09-13T15:01:30;4.32;;;0.75;;
13319;SDS011;59599;47.608;12.190;2022-09-13T15:03:57;1.83;;;0.80;;
13319;SDS011;59599;47.608;12.190;2022-09-13T15:06:26;2.80;;;0.93;;
13319;SDS011;59599;47.608;12.190;2022-09-13T15:11:58;2.60;;;0.63;;
13319;SDS011;59599;47.608;12.190;2022-09-13T15:16:52;1.67;;;0.80;;
13319;SDS011;59599;47.608;12.190;2022-09-13T15:21:47;1.73;;;0.95;;
13319;SDS011;59599;47.608;12.190;2022-09-13T15:24:19;1.08;;;0.80;;
13319;SDS011;59599;47.608;12.190;2022-09-13T15:26:48;1.45;;;0.80;;
13319;SDS011;59599;47.608;12.190;2022-09-13T15:29:25;1.63;;;1.13;;
13319;SDS011;59599;47.608;12.190;2022-09-13T15:31:57;1.77;;;0.93;;
13319;SDS011;59599;47.608;12.190;2022-09-13T15:34:23;1.73;;;0.90;;
13319;SDS011;59599;47.608;12.190;2022-09-13T15:37:12;0.90;;;0.80;;
13319;SDS011;59599;47.608;12.190;2022-09-13T15:39:46;4.70;;;0.95;;
13319;SDS011;59599;47.608;12.190;2022-09-13T15:42:25;3.70;;;0.90;;
13319;SDS011;59599;47.608;12.190;2022-09-13T15:44:50;2.85;;;1.27;;
13319;SDS011;59599;47.608;12.190;2022-09-13T15:47:16;2.85;;;1.20;;
13319;SDS011;59599;47.608;12.190;2022-09-13T15:49:46;4.28;;;1.65;;
13319;SDS011;59599;47.608;12.190;2022-09-13T15:52:14;2.90;;;1.55;;
13319;SDS011;59599;47.608;12.190;2022-09-13T15:54:41;1.95;;;1.10;;
13319;SDS011;59599;47.608;12.190;2022-09-13T15:57:08;2.65;;;1.17;;
13319;SDS011;59599;47.608;12.190;2022-09-13T15:59:40;3.28;;;0.98;;
13319;SDS011;59599;47.608;12.190;2022-09-13T16:02:17;1.98;;;0.95;;
13319;SDS011;59599;47.608;12.190;2022-09-13T16:04:48;4.50;;;1.10;;
13319;SDS011;59599;47.608;12.190;2022-09-13T16:07:14;3.55;;;1.00;;
13319;SDS011;59599;47.608;12.190;2022-09-13T16:09:40;1.38;;;1.10;;
13319;SDS011;59599;47.608;12.190;2022-09-13T16:12:06;3.75;;;0.93;;
13319;SDS011;59599;47.608;12.190;2022-09-13T16:14:32;2.53;;;1.02;;
13319;SDS011;59599;47.608;12.190;2022-09-13T16:17:00;5.43;;;0.80;;
13319;SDS011;59599;47.608;12.190;2022-09-13T16:19:31;2.10;;;0.98;;
13319;SDS011;59599;47.608;12.190;2022-09-13T16:21:57;4.05;;;1.10;;
13319;SDS011;59599;47.608;12.190;2022-09-13T16:24:23;17.75;;;2.40;;
13319;SDS011;59599;47.608;12.190;2022-09-13T16:26:49;9.82;;;2.17;;
13319;SDS011;59599;47.608;12.190;2022-09-13T16:29:15;4.07;;;0.90;;
13319;SDS011;59599;47.608;12.190;2022-09-13T16:31:41;0.98;;;0.80;;
13319;SDS011;59599;47.608;12.190;2022-09-13T16:34:07;1.88;;;1.00;;
13319;SDS011;59599;47.608;12.190;2022-09-13T16:36:33;3.00;;;1.23;;
13319;SDS011;59599;47.608;12.190;2022-09-13T16:38:59;2.92;;;1.20;;
13319;SDS011;59599;47.608;12.190;2022-09-13T16:41:25;1.55;;;1.25;;
13319;SDS011;59599;47.608;12.190;2022-09-13T16:43:52;2.35;;;1.60;;
13319;SDS011;59599;47.608;12.190;2022-09-13T16:46:18;3.90;;;2.10;;
13319;SDS011;59599;47.608;12.190;2022-09-13T16:48:44;6.28;;;2.45;;
13319;SDS011;59599;47.608;12.190;2022-09-13T16:51:18;1.58;;;1.20;;
13319;SDS011;59599;47.608;12.190;2022-09-13T16:53:44;2.65;;;1.00;;
13319;SDS011;59599;47.608;12.190;2022-09-13T16:56:10;3.08;;;1.10;;
13319;SDS011;59599;47.608;12.190;2022-09-13T16:58:38;1.35;;;1.02;;
13319;SDS011;59599;47.608;12.190;2022-09-13T17:01:06;3.28;;;1.20;;
13319;SDS011;59599;47.608;12.190;2022-09-13T17:03:33;1.38;;;1.25;;
13319;SDS011;59599;47.608;12.190;2022-09-13T17:06:00;2.88;;;1.52;;
13319;SDS011;59599;47.608;12.190;2022-09-13T17:08:28;2.55;;;1.80;;
13319;SDS011;59599;47.608;12.190;2022-09-13T17:10:54;5.80;;;1.90;;
13319;SDS011;59599;47.608;12.190;2022-09-13T17:13:20;4.18;;;1.85;;
13319;SDS011;59599;47.608;12.190;2022-09-13T17:15:46;4.45;;;1.60;;
13319;SDS011;59599;47.608;12.190;2022-09-13T17:18:12;4.25;;;1.60;;
13319;SDS011;59599;47.608;12.190;2022-09-13T17:20:42;5.50;;;1.58;;
13319;SDS011;59599;47.608;12.190;2022-09-13T17:23:09;5.93;;;1.85;;
13319;SDS011;59599;47.608;12.190;2022-09-13T17:25:35;2.80;;;1.50;;
13319;SDS011;59599;47.608;12.190;2022-09-13T17:28:01;1.40;;;1.20;;
13319;SDS011;59599;47.608;12.190;2022-09-13T17:30:27;3.60;;;1.30;;
13319;SDS011;59599;47.608;12.190;2022-09-13T17:32:53;2.60;;;1.20;;
13319;SDS011;59599;47.608;12.190;2022-09-13T17:35:19;3.63;;;1.95;;
13319;SDS011;59599;47.608;12.190;2022-09-13T17:37:46;3.72;;;1.52;;
13319;SDS011;59599;47.608;12.190;2022-09-13T17:40:12;3.30;;;1.85;;
13319;SDS011;59599;47.608;12.190;2022-09-13T17:42:38;2.78;;;1.20;;
13319;SDS011;59599;47.608;12.190;2022-09-13T17:45:04;2.17;;;1.13;;
13319;SDS011;59599;47.608;12.190;2022-09-13T17:47:30;2.03;;;1.23;;
13319;SDS011;59599;47.608;12.190;2022-09-13T17:49:55;4.15;;;1.30;;
13319;SDS011;59599;47.608;12.190;2022-09-13T17:52:22;4.80;;;1.38;;
13319;SDS011;59599;47.608;12.190;2022-09-13T17:54:47;3.55;;;1.00;;
13319;SDS011;59599;47.608;12.190;2022-09-13T17:57:14;4.13;;;1.17;;
13319;SDS011;59599;47.608;12.190;2022-09-13T17:59:40;4.07;;;1.38;;
13319;SDS011;59599;47.608;12.190;2022-09-13T18:02:06;1.35;;;1.20;;
13319;SDS011;59599;47.608;12.190;2022-09-13T18:04:32;3.90;;;1.50;;
13319;SDS011;59599;47.608;12.190;2022-09-13T18:06:58;1.38;;;1.27;;
13319;SDS011;59599;47.608;12.190;2022-09-13T18:09:24;5.22;;;1.73;;
13319;SDS011;59599;47.608;12.190;2022-09-13T18:11:50;3.92;;;1.58;;
13319;SDS011;59599;47.608;12.190;2022-09-13T18:14:17;4.03;;;1.75;;
13319;SDS011;59599;47.608;12.190;2022-09-13T18:16:44;7.60;;;1.45;;
13319;SDS011;59599;47.608;12.190;2022-09-13T18:19:10;5.82;;;1.75;;
13319;SDS011;59599;47.608;12.190;2022-09-13T18:21:36;3.78;;;1.40;;
13319;SDS011;59599;47.608;12.190;2022-09-13T18:24:02;3.38;;;1.30;;
13319;SDS011;59599;47.608;12.190;2022-09-13T18:26:29;4.65;;;1.20;;
13319;SDS011;59599;47.608;12.190;2022-09-13T18:29:01;4.85;;;1.52;;
13319;SDS011;59599;47.608;12.190;2022-09-13T18:31:32;1.65;;;1.27;;
13319;SDS011;59599;47.608;12.190;2022-09-13T18:33:59;2.95;;;1.40;;
13319;SDS011;59599;47.608;12.190;2022-09-13T18:36:30;2.13;;;1.20;;
13319;SDS011;59599;47.608;12.190;2022-09-13T18:38:57;3.55;;;1.40;;
13319;SDS011;59599;47.608;12.190;2022-09-13T18:41:29;1.98;;;1.40;;
13319;SDS011;59599;47.608;12.190;2022-09-13T18:43:57;3.60;;;1.52;;
13319;SDS011;59599;47.608;12.190;2022-09-13T18:46:24;4.82;;;1.73;;
13319;SDS011;59599;47.608;12.190;2022-09-13T18:48:54;2.45;;;2.00;;
13319;SDS011;59599;47.608;12.190;2022-09-13T18:51:29;4.43;;;1.95;;
13319;SDS011;59599;47.608;12.190;2022-09-13T18:53:56;5.95;;;2.38;;
13319;SDS011;59599;47.608;12.190;2022-09-13T18:56:23;4.40;;;2.08;;
13319;SDS011;59599;47.608;12.190;2022-09-13T18:58:49;6.63;;;1.90;;
13319;SDS011;59599;47.608;12.190;2022-09-13T19:01:25;5.28;;;1.83;;
13319;SDS011;59599;47.608;12.190;2022-09-13T19:03:54;6.35;;;2.15;;
13319;SDS011;59599;47.608;12.190;2022-09-13T19:08:47;9.60;;;2.25;;
13319;SDS011;59599;47.608;12.190;2022-09-13T19:11:14;3.47;;;1.80;;
13319;SDS011;59599;47.608;12.190;2022-09-13T19:13:41;2.20;;;2.00;;
13319;SDS011;59599;47.608;12.190;2022-09-13T19:16:08;3.58;;;2.10;;
13319;SDS011;59599;47.608;12.190;2022-09-13T19:18:37;2.75;;;1.80;;
13319;SDS011;59599;47.608;12.190;2022-09-13T19:21:05;2.65;;;2.00;;
13319;SDS011;59599;47.608;12.190;2022-09-13T19:23:38;5.13;;;1.88;;
13319;SDS011;59599;47.608;12.190;2022-09-13T19:26:10;5.63;;;2.08;;
13319;SDS011;59599;47.608;12.190;2022-09-13T19:28:38;4.53;;;1.85;;
13319;SDS011;59599;47.608;12.190;2022-09-13T19:31:09;5.97;;;2.00;;
13319;SDS011;59599;47.608;12.190;2022-09-13T19:33:36;3.20;;;1.67;;
13319;SDS011;59599;47.608;12.190;2022-09-13T19:36:03;3.38;;;1.38;;
13319;SDS011;59599;47.608;12.190;2022-09-13T19:38:32;2.40;;;1.42;;
13319;SDS011;59599;47.608;12.190;2022-09-13T19:40:58;7.28;;;1.83;;
13319;SDS011;59599;47.608;12.190;2022-09-13T19:43:27;3.42;;;1.50;;
13319;SDS011;59599;47.608;12.190;2022-09-13T19:45:55;4.60;;;1.80;;
13319;SDS011;59599;47.608;12.190;2022-09-13T19:48:28;4.20;;;1.60;;
13319;SDS011;59599;47.608;12.190;2022-09-13T19:50:55;3.58;;;1.50;;
13319;SDS011;59599;47.608;12.190;2022-09-13T19:53:27;3.63;;;1.35;;
13319;SDS011;59599;47.608;12.190;2022-09-13T19:55:53;3.67;;;1.98;;
13319;SDS011;59599;47.608;12.190;2022-09-13T19:58:19;3.47;;;1.60;;
13319;SDS011;59599;47.608;12.190;2022-09-13T20:00:45;3.17;;;1.58;;
13319;SDS011;59599;47.608;12.190;2022-09-13T20:03:11;2.97;;;1.40;;
13319;SDS011;59599;47.608;12.190;2022-09-13T20:05:37;7.55;;;1.52;;
13319;SDS011;59599;47.608;12.190;2022-09-13T20:08:03;6.28;;;1.50;;
13319;SDS011;59599;47.608;12.190;2022-09-13T20:10:30;2.35;;;1.35;;
13319;SDS011;59599;47.608;12.190;2022-09-13T20:12:56;2.22;;;1.10;;
13319;SDS011;59599;47.608;12.190;2022-09-13T20:15:23;4.13;;;1.40;;
13319;SDS011;59599;47.608;12.190;2022-09-13T20:17:50;2.40;;;1.55;;
13319;SDS011;59599;47.608;12.190;2022-09-13T20:20:16;2.63;;;1.38;;
13319;SDS011;59599;47.608;12.190;2022-09-13T20:22:42;4.68;;;1.42;;
13319;SDS011;59599;47.608;12.190;2022-09-13T20:25:08;6.18;;;1.70;;
13319;SDS011;59599;47.608;12.190;2022-09-13T20:27:34;3.00;;;1.50;;
13319;SDS011;59599;47.608;12.190;2022-09-13T20:30:02;6.28;;;1.70;;
13319;SDS011;59599;47.608;12.190;2022-09-13T20:32:29;7.80;;;1.77;;
13319;SDS011;59599;47.608;12.190;2022-09-13T20:34:55;8.07;;;1.65;;
13319;SDS011;59599;47.608;12.190;2022-09-13T20:37:21;3.38;;;1.58;;
13319;SDS011;59599;47.608;12.190;2022-09-13T20:39:47;7.55;;;2.35;;
13319;SDS011;59599;47.608;12.190;2022-09-13T20:42:13;4.05;;;1.73;;
13319;SDS011;59599;47.608;12.190;2022-09-13T20:44:39;4.10;;;1.90;;
13319;SDS011;59599;47.608;12.190;2022-09-13T20:47:06;2.30;;;1.58;;
13319;SDS011;59599;47.608;12.190;2022-09-13T20:49:32;3.40;;;1.60;;
13319;SDS011;59599;47.608;12.190;2022-09-13T20:51:58;3.17;;;1.40;;
13319;SDS011;59599;47.608;12.190;2022-09-13T20:54:24;2.78;;;1.45;;
13319;SDS011;59599;47.608;12.190;2022-09-13T20:56:50;5.68;;;1.70;;
13319;SDS011;59599;47.608;12.190;2022-09-13T20:59:15;3.38;;;1.40;;
13319;SDS011;59599;47.608;12.190;2022-09-13T21:01:41;3.33;;;1.67;;
13319;SDS011;59599;47.608;12.190;2022-09-13T21:04:07;4.20;;;1.40;;
13319;SDS011;59599;47.608;12.190;2022-09-13T21:06:37;2.72;;;1.60;;
13319;SDS011;59599;47.608;12.190;2022-09-13T21:09:24;3.55;;;1.50;;
13319;SDS011;59599;47.608;12.190;2022-09-13T21:11:50;3.33;;;1.20;;